sensor_id;sensor_type;location;lat;lon;timestamp;temperature;humidity
42201;DHT22;27869;51.442;7.540;2023-04-06T00:00:39;1.40;99.90
42201;DHT22;27869;51.442;7.540;2023-04-06T00:03:06;1.40;99.90
42201;DHT22;27869;51.442;7.540;2023-04-06T00:05:33;1.40;99.90
42201;DHT22;27869;51.442;7.540;2023-04-06T00:08:00;1.40;99.90
42201;DHT22;27869;51.442;7.540;2023-04-06T00:10:27;1.40;99.90
42201;DHT22;27869;51.442;7.540;2023-04-06T00:12:55;1.30;99.90
42201;DHT22;27869;51.442;7.540;2023-04-06T00:15:24;1.30;99.90
42201;DHT22;27869;51.442;7.540;2023-04-06T00:17:53;1.30;99.90
42201;DHT22;27869;51.442;7.540;2023-04-06T00:20:20;1.20;99.90
42201;DHT22;27869;51.442;7.540;2023-04-06T00:22:47;1.20;99.90
42201;DHT22;27869;51.442;7.540;2023-04-06T00:25:14;1.20;99.90
42201;DHT22;27869;51.442;7.540;2023-04-06T00:27:42;1.10;99.90
42201;DHT22;27869;51.442;7.540;2023-04-06T00:30:10;1.10;99.90
42201;DHT22;27869;51.442;7.540;2023-04-06T00:32:38;1.10;99.90
42201;DHT22;27869;51.442;7.540;2023-04-06T00:35:06;1.10;99.90
42201;DHT22;27869;51.442;7.540;2023-04-06T00:37:33;1.00;99.90
42201;DHT22;27869;51.442;7.540;2023-04-06T00:40:00;1.00;99.90
42201;DHT22;27869;51.442;7.540;2023-04-06T00:42:28;1.00;99.90
42201;DHT22;27869;51.442;7.540;2023-04-06T00:44:57;1.00;99.90
42201;DHT22;27869;51.442;7.540;2023-04-06T00:47:24;0.90;99.90
42201;DHT22;27869;51.442;7.540;2023-04-06T00:49:54;0.90;99.90
42201;DHT22;27869;51.442;7.540;2023-04-06T00:52:21;0.90;99.90
42201;DHT22;27869;51.442;7.540;2023-04-06T00:54:48;0.90;99.90
42201;DHT22;27869;51.442;7.540;2023-04-06T00:57:16;0.90;99.90
42201;DHT22;27869;51.442;7.540;2023-04-06T00:59:43;0.80;99.90
42201;DHT22;27869;51.442;7.540;2023-04-06T01:02:11;0.80;99.90
42201;DHT22;27869;51.442;7.540;2023-04-06T01:04:38;0.80;99.90
42201;DHT22;27869;51.442;7.540;2023-04-06T01:07:06;0.80;99.90
42201;DHT22;27869;51.442;7.540;2023-04-06T01:09:33;0.80;99.90
42201;DHT22;27869;51.442;7.540;2023-04-06T01:12:00;0.80;99.90
42201;DHT22;27869;51.442;7.540;2023-04-06T01:14:27;0.70;99.90
42201;DHT22;27869;51.442;7.540;2023-04-06T01:16:58;0.70;99.90
42201;DHT22;27869;51.442;7.540;2023-04-06T01:19:26;0.70;99.90
42201;DHT22;27869;51.442;7.540;2023-04-06T01:21:53;0.60;99.90
42201;DHT22;27869;51.442;7.540;2023-04-06T01:24:21;0.60;99.90
42201;DHT22;27869;51.442;7.540;2023-04-06T01:26:48;0.60;99.90
42201;DHT22;27869;51.442;7.540;2023-04-06T01:29:16;0.60;99.90
42201;DHT22;27869;51.442;7.540;2023-04-06T01:31:43;0.60;99.90
42201;DHT22;27869;51.442;7.540;2023-04-06T01:34:10;0.50;99.90
42201;DHT22;27869;51.442;7.540;2023-04-06T01:36:37;0.60;99.90
42201;DHT22;27869;51.442;7.540;2023-04-06T01:39:04;0.50;99.90
42201;DHT22;27869;51.442;7.540;2023-04-06T01:41:32;0.50;99.90
42201;DHT22;27869;51.442;7.540;2023-04-06T01:43:59;0.50;99.90
42201;DHT22;27869;51.442;7.540;2023-04-06T01:46:26;0.50;99.90
42201;DHT22;27869;51.442;7.540;2023-04-06T01:48:53;0.40;99.90
42201;DHT22;27869;51.442;7.540;2023-04-06T01:51:20;0.40;99.90
42201;DHT22;27869;51.442;7.540;2023-04-06T01:53:47;0.40;99.90
42201;DHT22;27869;51.442;7.540;2023-04-06T01:56:15;0.40;99.90
42201;DHT22;27869;51.442;7.540;2023-04-06T01:58:43;0.40;99.90
42201;DHT22;27869;51.442;7.540;2023-04-06T02:01:10;0.40;99.90
42201;DHT22;27869;51.442;7.540;2023-04-06T02:03:37;0.40;99.90
42201;DHT22;27869;51.442;7.540;2023-04-06T02:06:04;0.40;99.90
42201;DHT22;27869;51.442;7.540;2023-04-06T02:08:31;0.30;99.90
42201;DHT22;27869;51.442;7.540;2023-04-06T02:10:58;0.30;99.90
42201;DHT22;27869;51.442;7.540;2023-04-06T02:13:25;0.30;99.90
42201;DHT22;27869;51.442;7.540;2023-04-06T02:15:54;0.30;99.90
42201;DHT22;27869;51.442;7.540;2023-04-06T02:18:21;0.30;99.90
42201;DHT22;27869;51.442;7.540;2023-04-06T02:20:48;0.30;99.90
42201;DHT22;27869;51.442;7.540;2023-04-06T02:23:15;0.30;99.90
42201;DHT22;27869;51.442;7.540;2023-04-06T02:25:42;0.30;99.90
42201;DHT22;27869;51.442;7.540;2023-04-06T02:28:09;0.20;99.90
42201;DHT22;27869;51.442;7.540;2023-04-06T02:30:36;0.20;99.90
42201;DHT22;27869;51.442;7.540;2023-04-06T02:33:04;0.20;99.90
42201;DHT22;27869;51.442;7.540;2023-04-06T02:35:31;0.20;99.90
42201;DHT22;27869;51.442;7.540;2023-04-06T02:37:58;0.20;99.90
42201;DHT22;27869;51.442;7.540;2023-04-06T02:40:25;0.20;99.90
42201;DHT22;27869;51.442;7.540;2023-04-06T02:42:52;0.20;99.90
42201;DHT22;27869;51.442;7.540;2023-04-06T02:45:20;0.20;99.90
42201;DHT22;27869;51.442;7.540;2023-04-06T02:47:47;0.20;99.90
42201;DHT22;27869;51.442;7.540;2023-04-06T02:50:15;0.20;99.90
42201;DHT22;27869;51.442;7.540;2023-04-06T02:52:42;0.20;99.90
42201;DHT22;27869;51.442;7.540;2023-04-06T02:55:09;0.10;99.90
42201;DHT22;27869;51.442;7.540;2023-04-06T02:57:36;0.20;99.90
42201;DHT22;27869;51.442;7.540;2023-04-06T03:00:04;0.20;99.90
42201;DHT22;27869;51.442;7.540;2023-04-06T03:02:32;0.20;99.90
42201;DHT22;27869;51.442;7.540;2023-04-06T03:04:59;0.10;99.90
42201;DHT22;27869;51.442;7.540;2023-04-06T03:07:27;0.10;99.90
42201;DHT22;27869;51.442;7.540;2023-04-06T03:09:54;0.10;99.90
42201;DHT22;27869;51.442;7.540;2023-04-06T03:12:21;0.10;99.90
42201;DHT22;27869;51.442;7.540;2023-04-06T03:14:48;0.10;99.90
42201;DHT22;27869;51.442;7.540;2023-04-06T03:17:15;0.10;99.90
42201;DHT22;27869;51.442;7.540;2023-04-06T03:19:42;0.10;99.90
42201;DHT22;27869;51.442;7.540;2023-04-06T03:22:09;0.10;99.90
42201;DHT22;27869;51.442;7.540;2023-04-06T03:24:38;0.10;99.90
42201;DHT22;27869;51.442;7.540;2023-04-06T03:27:05;0.10;99.90
42201;DHT22;27869;51.442;7.540;2023-04-06T03:29:32;0.10;99.90
42201;DHT22;27869;51.442;7.540;2023-04-06T03:31:59;0.10;99.90
42201;DHT22;27869;51.442;7.540;2023-04-06T03:34:26;0.10;99.90
42201;DHT22;27869;51.442;7.540;2023-04-06T03:36:53;0.10;99.90
42201;DHT22;27869;51.442;7.540;2023-04-06T03:39:20;0.00;99.90
42201;DHT22;27869;51.442;7.540;2023-04-06T03:41:48;0.00;99.90
42201;DHT22;27869;51.442;7.540;2023-04-06T03:44:15;0.00;99.90
42201;DHT22;27869;51.442;7.540;2023-04-06T03:46:42;0.00;99.90
42201;DHT22;27869;51.442;7.540;2023-04-06T03:49:09;0.00;99.90
42201;DHT22;27869;51.442;7.540;2023-04-06T03:51:36;0.00;99.90
42201;DHT22;27869;51.442;7.540;2023-04-06T03:54:03;0.00;99.90
42201;DHT22;27869;51.442;7.540;2023-04-06T03:56:30;-0.10;99.90
42201;DHT22;27869;51.442;7.540;2023-04-06T03:58:59;-0.10;99.90
42201;DHT22;27869;51.442;7.540;2023-04-06T04:01:27;-0.10;99.90
42201;DHT22;27869;51.442;7.540;2023-04-06T04:03:54;-0.10;99.90
42201;DHT22;27869;51.442;7.540;2023-04-06T04:06:21;-0.10;99.90
42201;DHT22;27869;51.442;7.540;2023-04-06T04:08:48;-0.10;99.90
42201;DHT22;27869;51.442;7.540;2023-04-06T04:11:15;-0.20;99.90
42201;DHT22;27869;51.442;7.540;2023-04-06T04:13:44;-0.20;99.90
42201;DHT22;27869;51.442;7.540;2023-04-06T04:16:13;-0.20;99.90
42201;DHT22;27869;51.442;7.540;2023-04-06T04:18:40;-0.20;99.90
42201;DHT22;27869;51.442;7.540;2023-04-06T04:21:09;-0.20;99.90
42201;DHT22;27869;51.442;7.540;2023-04-06T04:23:36;-0.20;99.90
42201;DHT22;27869;51.442;7.540;2023-04-06T04:26:03;-0.30;99.90
42201;DHT22;27869;51.442;7.540;2023-04-06T04:28:30;-0.30;99.90
42201;DHT22;27869;51.442;7.540;2023-04-06T04:30:57;-0.30;99.90
42201;DHT22;27869;51.442;7.540;2023-04-06T04:33:25;-0.30;99.90
42201;DHT22;27869;51.442;7.540;2023-04-06T04:35:52;-0.30;99.90
42201;DHT22;27869;51.442;7.540;2023-04-06T04:38:20;-0.30;99.90
42201;DHT22;27869;51.442;7.540;2023-04-06T04:40:47;-0.30;99.90
42201;DHT22;27869;51.442;7.540;2023-04-06T04:43:14;-0.30;99.90
42201;DHT22;27869;51.442;7.540;2023-04-06T04:45:41;-0.30;99.90
42201;DHT22;27869;51.442;7.540;2023-04-06T04:48:08;-0.30;99.90
42201;DHT22;27869;51.442;7.540;2023-04-06T04:50:37;-0.40;99.90
42201;DHT22;27869;51.442;7.540;2023-04-06T04:53:04;-0.40;99.90
42201;DHT22;27869;51.442;7.540;2023-04-06T04:55:31;-0.40;99.90
42201;DHT22;27869;51.442;7.540;2023-04-06T04:57:58;-0.40;99.90
42201;DHT22;27869;51.442;7.540;2023-04-06T05:00:25;-0.40;99.90
42201;DHT22;27869;51.442;7.540;2023-04-06T05:02:52;-0.40;99.90
42201;DHT22;27869;51.442;7.540;2023-04-06T05:05:20;-0.40;99.90
42201;DHT22;27869;51.442;7.540;2023-04-06T05:07:48;-0.40;99.90
42201;DHT22;27869;51.442;7.540;2023-04-06T05:10:15;-0.50;99.90
42201;DHT22;27869;51.442;7.540;2023-04-06T05:12:42;-0.50;99.90
42201;DHT22;27869;51.442;7.540;2023-04-06T05:15:10;-0.50;99.90
42201;DHT22;27869;51.442;7.540;2023-04-06T05:17:37;-0.50;99.90
42201;DHT22;27869;51.442;7.540;2023-04-06T05:20:05;-0.50;99.90
42201;DHT22;27869;51.442;7.540;2023-04-06T05:22:32;-0.50;99.90
42201;DHT22;27869;51.442;7.540;2023-04-06T05:25:01;-0.50;99.90
42201;DHT22;27869;51.442;7.540;2023-04-06T05:27:29;-0.50;99.90
42201;DHT22;27869;51.442;7.540;2023-04-06T05:29:56;-0.50;99.90
42201;DHT22;27869;51.442;7.540;2023-04-06T05:32:23;-0.50;99.90
42201;DHT22;27869;51.442;7.540;2023-04-06T05:34:50;-0.50;99.90
42201;DHT22;27869;51.442;7.540;2023-04-06T05:37:17;-0.50;99.90
42201;DHT22;27869;51.442;7.540;2023-04-06T05:39:44;-0.40;99.90
42201;DHT22;27869;51.442;7.540;2023-04-06T05:42:13;-0.40;99.90
42201;DHT22;27869;51.442;7.540;2023-04-06T05:44:40;-0.40;99.90
42201;DHT22;27869;51.442;7.540;2023-04-06T05:47:07;-0.40;99.90
42201;DHT22;27869;51.442;7.540;2023-04-06T05:49:35;-0.40;99.90
42201;DHT22;27869;51.442;7.540;2023-04-06T05:52:02;-0.30;99.90
42201;DHT22;27869;51.442;7.540;2023-04-06T05:54:29;-0.30;99.90
42201;DHT22;27869;51.442;7.540;2023-04-06T05:56:56;-0.30;99.90
42201;DHT22;27869;51.442;7.540;2023-04-06T05:59:25;-0.30;99.90
42201;DHT22;27869;51.442;7.540;2023-04-06T06:01:52;-0.20;99.90
42201;DHT22;27869;51.442;7.540;2023-04-06T06:04:19;-0.20;99.90
42201;DHT22;27869;51.442;7.540;2023-04-06T06:06:46;-0.10;99.90
42201;DHT22;27869;51.442;7.540;2023-04-06T06:09:13;-0.10;99.90
42201;DHT22;27869;51.442;7.540;2023-04-06T06:11:40;-0.10;99.90
42201;DHT22;27869;51.442;7.540;2023-04-06T06:14:07;0.00;99.90
42201;DHT22;27869;51.442;7.540;2023-04-06T06:16:35;0.00;99.90
42201;DHT22;27869;51.442;7.540;2023-04-06T06:19:02;0.00;99.90
42201;DHT22;27869;51.442;7.540;2023-04-06T06:21:30;0.10;99.90
42201;DHT22;27869;51.442;7.540;2023-04-06T06:23:57;0.10;99.90
42201;DHT22;27869;51.442;7.540;2023-04-06T06:26:24;0.20;99.90
42201;DHT22;27869;51.442;7.540;2023-04-06T06:28:51;0.20;99.90
42201;DHT22;27869;51.442;7.540;2023-04-06T06:31:18;0.30;99.90
42201;DHT22;27869;51.442;7.540;2023-04-06T06:33:47;0.30;99.90
42201;DHT22;27869;51.442;7.540;2023-04-06T06:36:16;0.40;99.90
42201;DHT22;27869;51.442;7.540;2023-04-06T06:38:43;0.50;99.90
42201;DHT22;27869;51.442;7.540;2023-04-06T06:41:10;0.50;99.90
42201;DHT22;27869;51.442;7.540;2023-04-06T06:43:37;0.60;99.90
42201;DHT22;27869;51.442;7.540;2023-04-06T06:46:05;0.70;99.90
42201;DHT22;27869;51.442;7.540;2023-04-06T06:48:32;0.80;99.90
42201;DHT22;27869;51.442;7.540;2023-04-06T06:51:01;0.90;99.90
42201;DHT22;27869;51.442;7.540;2023-04-06T06:53:28;0.90;99.90
42201;DHT22;27869;51.442;7.540;2023-04-06T06:55:55;1.00;99.90
42201;DHT22;27869;51.442;7.540;2023-04-06T06:58:22;1.10;99.90
42201;DHT22;27869;51.442;7.540;2023-04-06T07:00:49;1.20;99.90
42201;DHT22;27869;51.442;7.540;2023-04-06T07:03:16;1.30;99.90
42201;DHT22;27869;51.442;7.540;2023-04-06T07:05:45;1.40;99.90
42201;DHT22;27869;51.442;7.540;2023-04-06T07:08:20;1.50;99.90
42201;DHT22;27869;51.442;7.540;2023-04-06T07:10:47;1.70;99.90
42201;DHT22;27869;51.442;7.540;2023-04-06T07:13:15;1.80;99.90
42201;DHT22;27869;51.442;7.540;2023-04-06T07:15:47;1.90;99.90
42201;DHT22;27869;51.442;7.540;2023-04-06T07:18:14;2.10;99.90
42201;DHT22;27869;51.442;7.540;2023-04-06T07:20:41;2.20;99.90
42201;DHT22;27869;51.442;7.540;2023-04-06T07:23:08;2.30;99.90
42201;DHT22;27869;51.442;7.540;2023-04-06T07:25:36;2.40;99.90
42201;DHT22;27869;51.442;7.540;2023-04-06T07:28:04;2.50;99.90
42201;DHT22;27869;51.442;7.540;2023-04-06T07:30:31;2.70;99.90
42201;DHT22;27869;51.442;7.540;2023-04-06T07:32:58;2.80;99.90
42201;DHT22;27869;51.442;7.540;2023-04-06T07:35:26;3.00;99.90
42201;DHT22;27869;51.442;7.540;2023-04-06T07:37:55;3.10;99.90
42201;DHT22;27869;51.442;7.540;2023-04-06T07:40:22;3.30;99.90
42201;DHT22;27869;51.442;7.540;2023-04-06T07:42:51;3.40;99.90
42201;DHT22;27869;51.442;7.540;2023-04-06T07:45:18;3.60;99.90
42201;DHT22;27869;51.442;7.540;2023-04-06T07:47:45;3.70;99.90
42201;DHT22;27869;51.442;7.540;2023-04-06T07:50:13;3.90;99.90
42201;DHT22;27869;51.442;7.540;2023-04-06T07:52:40;4.10;99.90
42201;DHT22;27869;51.442;7.540;2023-04-06T07:55:07;4.20;99.90
42201;DHT22;27869;51.442;7.540;2023-04-06T07:57:34;4.40;99.90
42201;DHT22;27869;51.442;7.540;2023-04-06T08:00:04;4.60;99.90
42201;DHT22;27869;51.442;7.540;2023-04-06T08:02:31;4.70;99.90
42201;DHT22;27869;51.442;7.540;2023-04-06T08:04:58;4.90;99.90
42201;DHT22;27869;51.442;7.540;2023-04-06T08:07:25;5.10;99.90
42201;DHT22;27869;51.442;7.540;2023-04-06T08:09:52;5.20;99.90
42201;DHT22;27869;51.442;7.540;2023-04-06T08:12:19;5.40;99.90
42201;DHT22;27869;51.442;7.540;2023-04-06T08:14:47;5.50;99.90
42201;DHT22;27869;51.442;7.540;2023-04-06T08:17:16;5.70;99.90
42201;DHT22;27869;51.442;7.540;2023-04-06T08:19:43;5.90;99.90
42201;DHT22;27869;51.442;7.540;2023-04-06T08:22:10;6.00;99.90
42201;DHT22;27869;51.442;7.540;2023-04-06T08:24:38;6.20;99.90
42201;DHT22;27869;51.442;7.540;2023-04-06T08:27:05;6.30;99.90
42201;DHT22;27869;51.442;7.540;2023-04-06T08:29:32;6.50;99.90
42201;DHT22;27869;51.442;7.540;2023-04-06T08:31:59;6.70;99.90
42201;DHT22;27869;51.442;7.540;2023-04-06T08:34:30;6.80;99.90
42201;DHT22;27869;51.442;7.540;2023-04-06T08:36:57;7.00;99.90
42201;DHT22;27869;51.442;7.540;2023-04-06T08:39:25;7.20;99.90
42201;DHT22;27869;51.442;7.540;2023-04-06T08:41:53;7.30;99.90
42201;DHT22;27869;51.442;7.540;2023-04-06T08:44:22;7.50;99.90
42201;DHT22;27869;51.442;7.540;2023-04-06T08:46:49;7.70;99.90
42201;DHT22;27869;51.442;7.540;2023-04-06T08:49:18;7.80;99.90
42201;DHT22;27869;51.442;7.540;2023-04-06T08:51:48;8.00;99.90
42201;DHT22;27869;51.442;7.540;2023-04-06T08:54:16;8.20;99.90
42201;DHT22;27869;51.442;7.540;2023-04-06T08:56:43;8.30;99.90
42201;DHT22;27869;51.442;7.540;2023-04-06T08:59:11;8.50;99.90
42201;DHT22;27869;51.442;7.540;2023-04-06T09:01:40;8.70;99.90
42201;DHT22;27869;51.442;7.540;2023-04-06T09:04:07;8.90;99.90
42201;DHT22;27869;51.442;7.540;2023-04-06T09:06:36;9.10;99.90
42201;DHT22;27869;51.442;7.540;2023-04-06T09:09:05;9.20;99.90
42201;DHT22;27869;51.442;7.540;2023-04-06T09:11:43;9.40;99.90
42201;DHT22;27869;51.442;7.540;2023-04-06T09:14:11;9.50;99.90
42201;DHT22;27869;51.442;7.540;2023-04-06T09:16:43;9.70;99.90
42201;DHT22;27869;51.442;7.540;2023-04-06T09:19:11;9.90;99.90
42201;DHT22;27869;51.442;7.540;2023-04-06T09:21:38;10.10;99.90
42201;DHT22;27869;51.442;7.540;2023-04-06T09:24:08;10.30;98.60
42201;DHT22;27869;51.442;7.540;2023-04-06T09:26:45;10.40;99.90
42201;DHT22;27869;51.442;7.540;2023-04-06T09:29:22;10.60;99.90
42201;DHT22;27869;51.442;7.540;2023-04-06T09:31:50;10.70;99.90
42201;DHT22;27869;51.442;7.540;2023-04-06T09:34:23;10.90;99.90
42201;DHT22;27869;51.442;7.540;2023-04-06T09:36:50;11.10;99.90
42201;DHT22;27869;51.442;7.540;2023-04-06T09:39:22;11.20;99.90
42201;DHT22;27869;51.442;7.540;2023-04-06T09:41:51;11.30;99.90
42201;DHT22;27869;51.442;7.540;2023-04-06T09:44:19;11.30;99.90
42201;DHT22;27869;51.442;7.540;2023-04-06T09:46:47;11.40;99.40
42201;DHT22;27869;51.442;7.540;2023-04-06T09:49:14;11.50;99.90
42201;DHT22;27869;51.442;7.540;2023-04-06T09:51:46;11.60;99.90
42201;DHT22;27869;51.442;7.540;2023-04-06T09:54:18;11.70;99.90
42201;DHT22;27869;51.442;7.540;2023-04-06T09:56:51;11.90;98.90
42201;DHT22;27869;51.442;7.540;2023-04-06T09:59:21;12.00;99.90
42201;DHT22;27869;51.442;7.540;2023-04-06T10:01:51;12.10;98.70
42201;DHT22;27869;51.442;7.540;2023-04-06T10:04:26;12.20;98.70
42201;DHT22;27869;51.442;7.540;2023-04-06T10:06:55;12.30;97.20
42201;DHT22;27869;51.442;7.540;2023-04-06T10:09:25;12.40;95.40
42201;DHT22;27869;51.442;7.540;2023-04-06T10:12:03;12.50;99.90
42201;DHT22;27869;51.442;7.540;2023-04-06T10:14:31;12.50;99.00
42201;DHT22;27869;51.442;7.540;2023-04-06T10:16:59;12.50;99.90
42201;DHT22;27869;51.442;7.540;2023-04-06T10:19:31;12.60;99.90
42201;DHT22;27869;51.442;7.540;2023-04-06T10:22:03;12.60;99.90
42201;DHT22;27869;51.442;7.540;2023-04-06T10:24:31;12.60;94.10
42201;DHT22;27869;51.442;7.540;2023-04-06T10:26:58;12.70;99.90
42201;DHT22;27869;51.442;7.540;2023-04-06T10:29:40;12.80;99.20
42201;DHT22;27869;51.442;7.540;2023-04-06T10:32:07;12.80;99.90
42201;DHT22;27869;51.442;7.540;2023-04-06T10:34:35;12.80;98.80
42201;DHT22;27869;51.442;7.540;2023-04-06T10:37:11;12.90;99.50
42201;DHT22;27869;51.442;7.540;2023-04-06T10:39:45;13.00;96.10
42201;DHT22;27869;51.442;7.540;2023-04-06T10:42:14;13.00;99.90
42201;DHT22;27869;51.442;7.540;2023-04-06T10:44:45;13.00;99.80
42201;DHT22;27869;51.442;7.540;2023-04-06T10:47:17;13.10;99.90
42201;DHT22;27869;51.442;7.540;2023-04-06T10:49:44;13.10;99.90
42201;DHT22;27869;51.442;7.540;2023-04-06T10:52:11;13.10;99.90
42201;DHT22;27869;51.442;7.540;2023-04-06T10:54:41;13.00;99.90
42201;DHT22;27869;51.442;7.540;2023-04-06T10:57:09;13.10;99.90
42201;DHT22;27869;51.442;7.540;2023-04-06T10:59:36;13.10;99.90
42201;DHT22;27869;51.442;7.540;2023-04-06T11:02:05;13.10;99.90
42201;DHT22;27869;51.442;7.540;2023-04-06T11:04:32;13.10;99.90
42201;DHT22;27869;51.442;7.540;2023-04-06T11:06:59;13.20;98.30
42201;DHT22;27869;51.442;7.540;2023-04-06T11:09:28;13.30;99.90
42201;DHT22;27869;51.442;7.540;2023-04-06T11:11:55;13.40;99.20
42201;DHT22;27869;51.442;7.540;2023-04-06T11:14:23;13.50;99.90
42201;DHT22;27869;51.442;7.540;2023-04-06T11:16:50;13.50;97.60
42201;DHT22;27869;51.442;7.540;2023-04-06T11:19:19;13.60;96.80
42201;DHT22;27869;51.442;7.540;2023-04-06T11:21:47;13.70;95.60
42201;DHT22;27869;51.442;7.540;2023-04-06T11:24:16;13.90;94.80
42201;DHT22;27869;51.442;7.540;2023-04-06T11:26:47;13.90;98.40
42201;DHT22;27869;51.442;7.540;2023-04-06T11:29:17;13.90;95.90
42201;DHT22;27869;51.442;7.540;2023-04-06T11:31:46;13.90;95.60
42201;DHT22;27869;51.442;7.540;2023-04-06T11:34:16;13.80;95.60
42201;DHT22;27869;51.442;7.540;2023-04-06T11:36:46;13.90;95.00
42201;DHT22;27869;51.442;7.540;2023-04-06T11:39:17;13.90;95.20
42201;DHT22;27869;51.442;7.540;2023-04-06T11:41:47;13.90;94.40
42201;DHT22;27869;51.442;7.540;2023-04-06T11:44:15;13.90;96.20
42201;DHT22;27869;51.442;7.540;2023-04-06T11:46:51;13.90;99.90
42201;DHT22;27869;51.442;7.540;2023-04-06T11:49:18;13.80;93.10
42201;DHT22;27869;51.442;7.540;2023-04-06T11:51:47;13.80;94.20
42201;DHT22;27869;51.442;7.540;2023-04-06T11:54:14;13.90;96.00
42201;DHT22;27869;51.442;7.540;2023-04-06T11:56:46;13.90;95.20
42201;DHT22;27869;51.442;7.540;2023-04-06T11:59:13;13.90;95.30
42201;DHT22;27869;51.442;7.540;2023-04-06T12:01:44;14.00;97.20
42201;DHT22;27869;51.442;7.540;2023-04-06T12:04:12;13.90;92.20
42201;DHT22;27869;51.442;7.540;2023-04-06T12:06:39;14.00;94.10
42201;DHT22;27869;51.442;7.540;2023-04-06T12:09:07;14.00;94.80
42201;DHT22;27869;51.442;7.540;2023-04-06T12:11:34;14.00;93.80
42201;DHT22;27869;51.442;7.540;2023-04-06T12:14:01;14.00;96.00
42201;DHT22;27869;51.442;7.540;2023-04-06T12:16:30;14.00;92.90
42201;DHT22;27869;51.442;7.540;2023-04-06T12:18:57;14.00;93.40
42201;DHT22;27869;51.442;7.540;2023-04-06T12:21:24;14.00;93.90
42201;DHT22;27869;51.442;7.540;2023-04-06T12:23:51;14.00;93.70
42201;DHT22;27869;51.442;7.540;2023-04-06T12:26:19;14.00;94.00
42201;DHT22;27869;51.442;7.540;2023-04-06T12:28:47;14.10;94.10
42201;DHT22;27869;51.442;7.540;2023-04-06T12:31:17;14.10;93.10
42201;DHT22;27869;51.442;7.540;2023-04-06T12:33:47;14.10;92.50
42201;DHT22;27869;51.442;7.540;2023-04-06T12:36:15;14.20;91.70
42201;DHT22;27869;51.442;7.540;2023-04-06T12:38:44;14.10;92.40
42201;DHT22;27869;51.442;7.540;2023-04-06T12:41:12;14.10;93.00
42201;DHT22;27869;51.442;7.540;2023-04-06T12:43:41;14.20;93.00
42201;DHT22;27869;51.442;7.540;2023-04-06T12:46:08;14.20;92.60
42201;DHT22;27869;51.442;7.540;2023-04-06T12:48:35;14.10;92.20
42201;DHT22;27869;51.442;7.540;2023-04-06T12:51:04;14.10;93.20
42201;DHT22;27869;51.442;7.540;2023-04-06T12:53:33;14.20;95.30
42201;DHT22;27869;51.442;7.540;2023-04-06T12:56:00;14.20;95.60
42201;DHT22;27869;51.442;7.540;2023-04-06T12:58:28;14.10;94.90
42201;DHT22;27869;51.442;7.540;2023-04-06T13:00:58;14.00;87.20
42201;DHT22;27869;51.442;7.540;2023-04-06T13:03:28;14.00;92.90
42201;DHT22;27869;51.442;7.540;2023-04-06T13:05:56;14.00;93.00
42201;DHT22;27869;51.442;7.540;2023-04-06T13:08:23;14.00;93.20
42201;DHT22;27869;51.442;7.540;2023-04-06T13:10:51;14.10;93.90
42201;DHT22;27869;51.442;7.540;2023-04-06T13:13:23;14.10;93.10
42201;DHT22;27869;51.442;7.540;2023-04-06T13:15:50;14.10;92.40
42201;DHT22;27869;51.442;7.540;2023-04-06T13:18:19;14.10;93.80
42201;DHT22;27869;51.442;7.540;2023-04-06T13:20:47;14.20;92.80
42201;DHT22;27869;51.442;7.540;2023-04-06T13:23:14;14.20;93.10
42201;DHT22;27869;51.442;7.540;2023-04-06T13:25:41;14.20;93.30
42201;DHT22;27869;51.442;7.540;2023-04-06T13:28:11;14.20;92.50
42201;DHT22;27869;51.442;7.540;2023-04-06T13:30:38;14.30;92.60
42201;DHT22;27869;51.442;7.540;2023-04-06T13:33:05;14.30;93.40
42201;DHT22;27869;51.442;7.540;2023-04-06T13:35:33;14.30;93.10
42201;DHT22;27869;51.442;7.540;2023-04-06T13:38:01;14.30;91.90
42201;DHT22;27869;51.442;7.540;2023-04-06T13:40:28;14.30;92.50
42201;DHT22;27869;51.442;7.540;2023-04-06T13:42:55;14.20;92.70
42201;DHT22;27869;51.442;7.540;2023-04-06T13:45:22;14.20;95.60
42201;DHT22;27869;51.442;7.540;2023-04-06T13:47:49;14.20;95.00
42201;DHT22;27869;51.442;7.540;2023-04-06T13:50:16;14.10;96.10
42201;DHT22;27869;51.442;7.540;2023-04-06T13:52:44;14.00;94.50
42201;DHT22;27869;51.442;7.540;2023-04-06T13:55:11;14.00;93.20
42201;DHT22;27869;51.442;7.540;2023-04-06T13:57:38;13.90;94.90
42201;DHT22;27869;51.442;7.540;2023-04-06T14:00:06;13.90;94.30
42201;DHT22;27869;51.442;7.540;2023-04-06T14:02:34;13.80;93.70
42201;DHT22;27869;51.442;7.540;2023-04-06T14:05:01;13.80;94.80
42201;DHT22;27869;51.442;7.540;2023-04-06T14:07:28;13.80;97.40
42201;DHT22;27869;51.442;7.540;2023-04-06T14:09:57;13.70;97.60
42201;DHT22;27869;51.442;7.540;2023-04-06T14:12:24;13.70;97.10
42201;DHT22;27869;51.442;7.540;2023-04-06T14:14:52;13.60;94.00
42201;DHT22;27869;51.442;7.540;2023-04-06T14:17:19;13.60;96.20
42201;DHT22;27869;51.442;7.540;2023-04-06T14:19:47;13.60;96.30
42201;DHT22;27869;51.442;7.540;2023-04-06T14:22:15;13.60;96.90
42201;DHT22;27869;51.442;7.540;2023-04-06T14:24:42;13.60;94.10
42201;DHT22;27869;51.442;7.540;2023-04-06T14:27:10;13.60;96.60
42201;DHT22;27869;51.442;7.540;2023-04-06T14:29:38;13.50;90.20
42201;DHT22;27869;51.442;7.540;2023-04-06T14:32:05;13.50;96.60
42201;DHT22;27869;51.442;7.540;2023-04-06T14:34:32;13.50;96.20
42201;DHT22;27869;51.442;7.540;2023-04-06T14:36:59;13.50;93.90
42201;DHT22;27869;51.442;7.540;2023-04-06T14:39:25;13.50;95.00
42201;DHT22;27869;51.442;7.540;2023-04-06T14:41:52;13.50;95.00
42201;DHT22;27869;51.442;7.540;2023-04-06T14:44:21;13.40;95.20
42201;DHT22;27869;51.442;7.540;2023-04-06T14:46:48;13.40;94.70
42201;DHT22;27869;51.442;7.540;2023-04-06T14:49:15;13.40;95.10
42201;DHT22;27869;51.442;7.540;2023-04-06T14:51:42;13.40;95.10
42201;DHT22;27869;51.442;7.540;2023-04-06T14:54:09;13.30;95.60
42201;DHT22;27869;51.442;7.540;2023-04-06T14:56:36;13.30;95.20
42201;DHT22;27869;51.442;7.540;2023-04-06T14:59:04;13.30;95.60
42201;DHT22;27869;51.442;7.540;2023-04-06T15:01:35;13.20;94.50
42201;DHT22;27869;51.442;7.540;2023-04-06T15:04:02;13.20;94.70
42201;DHT22;27869;51.442;7.540;2023-04-06T15:06:30;13.20;95.20
42201;DHT22;27869;51.442;7.540;2023-04-06T15:08:57;13.20;95.80
42201;DHT22;27869;51.442;7.540;2023-04-06T15:11:24;13.10;95.70
42201;DHT22;27869;51.442;7.540;2023-04-06T15:13:51;13.10;95.50
42201;DHT22;27869;51.442;7.540;2023-04-06T15:16:18;13.10;96.50
42201;DHT22;27869;51.442;7.540;2023-04-06T15:18:46;13.00;98.50
42201;DHT22;27869;51.442;7.540;2023-04-06T15:21:13;12.90;97.10
42201;DHT22;27869;51.442;7.540;2023-04-06T15:23:40;12.80;97.30
42201;DHT22;27869;51.442;7.540;2023-04-06T15:26:07;12.70;99.80
42201;DHT22;27869;51.442;7.540;2023-04-06T15:28:34;12.70;99.90
42201;DHT22;27869;51.442;7.540;2023-04-06T15:31:01;12.60;99.90
42201;DHT22;27869;51.442;7.540;2023-04-06T15:33:31;12.60;99.90
42201;DHT22;27869;51.442;7.540;2023-04-06T15:36:02;12.60;99.90
42201;DHT22;27869;51.442;7.540;2023-04-06T15:38:33;12.50;99.90
42201;DHT22;27869;51.442;7.540;2023-04-06T15:40:59;12.50;99.90